»·PEaware :: HYDRA64 KMAF-KLBB

HYDRA64 :: KMAF-KLBB

FLIGHT INFORMATION

Flight Status: Arrived
Operator: Unknown
More flights by this operator :: More flights under this callsign
Pilot: 47th FTW Laughlin (28783)
Aircraft: BEECH AIRCRAFT T-6A TEXAN
(TEX2)
More flights by this aircraft type
Origin: KMAF Midland Intl
United States
Destination: KLBB Lubbock Intl
United States
More flights between these airports :: More routes between these airports
Route: KMAF KLBB
File this flight plan on PilotEdge
Remarks: MULTIPLE APPROACHES AT KLBB
Altitude:
(Current/Filed)
17,000ft
Speed:
(Current/Filed)
255kts
Departed: 30-Jul-20 07:23 AM
Arrived: 30-Jul-20 08:10 AM
Distance/Time
Traveled:
105nm/0:47
Distance/Time
To Go:
Arrived

Flight Plot

Page will automatically refresh every two minutes.

Flight plan parsing failed; only flown route is shown


Map Options




Map Legend


Flown Route
Filed Route
Departure Airport
Arrival Airport
Navaid (VOR, NDB)
Fix

Horizontal Profiles

Position Reports

Time Latitude Longitude Heading Altitude Ground
Speed
30-Jul-20 07:03 31.939209 -102.207235 175 2875ft 0kts
30-Jul-20 07:04 31.939209 -102.207235 175 2875ft 0kts
30-Jul-20 07:05 31.939209 -102.207235 175 2875ft 0kts
30-Jul-20 07:06 31.939209 -102.207235 175 2875ft 0kts
30-Jul-20 07:07 31.939209 -102.207235 175 2875ft 0kts
30-Jul-20 07:08 31.939209 -102.207235 175 2875ft 0kts
30-Jul-20 07:09 31.939209 -102.207235 175 2875ft 0kts
30-Jul-20 07:10 31.939209 -102.207235 175 2875ft 0kts
30-Jul-20 07:11 31.939209 -102.207235 175 2875ft 0kts
30-Jul-20 07:12 31.939209 -102.207235 175 2875ft 0kts
30-Jul-20 07:13 31.939209 -102.207235 175 2875ft 0kts
30-Jul-20 07:14 31.939209 -102.207235 175 2875ft 0kts
30-Jul-20 07:15 31.939209 -102.207235 175 2875ft 0kts
30-Jul-20 07:16 31.939374 -102.206306 18 2875ft 5kts
30-Jul-20 07:17 31.943850 -102.206029 352 2875ft 18kts
30-Jul-20 07:18 31.948409 -102.206498 354 2875ft 21kts
30-Jul-20 07:19 31.953033 -102.206837 358 2875ft 17kts
30-Jul-20 07:20 31.959113 -102.206995 62 2875ft 20kts
30-Jul-20 07:21 31.959219 -102.206485 85 2875ft 1kts
30-Jul-20 07:22 31.944632 -102.204096 176 3197ft 141kts
30-Jul-20 07:23 31.901563 -102.194625 100 6053ft 174kts
30-Jul-20 07:24 31.935908 -102.203216 4 9322ft 166kts
30-Jul-20 07:25 31.984294 -102.194790 5 12710ft 187kts
30-Jul-20 07:26 32.037203 -102.185709 7 16060ft 198kts
30-Jul-20 07:27 32.099879 -102.175319 11 17027ft 269kts
30-Jul-20 07:28 32.178022 -102.157845 12 17075ft 293kts
30-Jul-20 07:29 32.258334 -102.139532 12 17002ft 290kts
30-Jul-20 07:30 32.336007 -102.126701 2 17033ft 279kts
30-Jul-20 07:31 32.413342 -102.124337 2 17139ft 277kts
30-Jul-20 07:32 32.490094 -102.120766 3 16903ft 268kts
30-Jul-20 07:33 32.559850 -102.113807 5 16889ft 246kts
30-Jul-20 07:34 32.626226 -102.105553 7 16996ft 237kts
30-Jul-20 07:35 32.691559 -102.096013 5 16951ft 239kts
30-Jul-20 07:36 32.757192 -102.086313 8 16965ft 237kts
30-Jul-20 07:37 32.822194 -102.073346 10 16955ft 237kts
30-Jul-20 07:38 32.886868 -102.058247 9 17054ft 242kts
30-Jul-20 07:39 32.959724 -102.043452 9 17012ft 281kts
30-Jul-20 07:40 33.037314 -102.026916 13 16776ft 280kts
30-Jul-20 07:41 33.111079 -102.007956 7 14388ft 267kts
30-Jul-20 07:42 33.184049 -101.999004 7 12022ft 258kts
30-Jul-20 07:43 33.253822 -101.986555 8 9787ft 253kts
30-Jul-20 07:44 33.321241 -101.975352 7 8068ft 240kts
30-Jul-20 07:45 33.389132 -101.967462 3 8069ft 254kts
30-Jul-20 07:46 33.460995 -101.956008 9 8045ft 262kts
30-Jul-20 07:47 33.533398 -101.941837 7 8025ft 265kts
30-Jul-20 07:48 33.606477 -101.930684 5 7975ft 264kts
30-Jul-20 07:49 33.678872 -101.917996 9 8069ft 262kts
30-Jul-20 07:50 33.750208 -101.899682 19 8127ft 263kts
30-Jul-20 07:51 33.820515 -101.872246 16 7958ft 268kts
30-Jul-20 07:52 33.891986 -101.851738 9 8029ft 265kts
30-Jul-20 07:53 33.961586 -101.827989 46 7997ft 263kts
30-Jul-20 07:54 33.947612 -101.751486 122 7399ft 245kts
30-Jul-20 07:55 33.910643 -101.687768 127 5413ft 222kts
30-Jul-20 07:56 33.877298 -101.638757 129 5113ft 170kts
30-Jul-20 07:57 33.838008 -101.609681 151 5166ft 166kts
30-Jul-20 07:58 33.796590 -101.596199 224 5134ft 167kts
30-Jul-20 07:59 33.755199 -101.614228 172 5243ft 163kts
30-Jul-20 08:00 33.712947 -101.592760 150 5200ft 167kts
30-Jul-20 08:01 33.669580 -101.575909 177 5254ft 165kts
30-Jul-20 08:02 33.622909 -101.577584 186 5199ft 169kts
30-Jul-20 08:03 33.607521 -101.624161 277 5196ft 165kts
30-Jul-20 08:04 33.617999 -101.676153 286 4962ft 129kts
30-Jul-20 08:05 33.629244 -101.713643 292 5070ft 122kts
30-Jul-20 08:06 33.644307 -101.747770 300 4133ft 116kts
30-Jul-20 08:07 33.658474 -101.780792 294 3530ft 107kts
30-Jul-20 08:08 33.662347 -101.809759 268 3252ft 51kts
30-Jul-20 08:09 33.661189 -101.824545 208 3252ft 38kts
30-Jul-20 08:10 33.660031 -101.831156 232 3247ft 25kts
30-Jul-20 08:11 33.659348 -101.832678 224 3244ft 0kts
30-Jul-20 08:12 33.659348 -101.832678 224 3244ft 0kts
30-Jul-20 08:13 33.659348 -101.832678 224 3244ft 0kts
30-Jul-20 08:14 33.659348 -101.832678 224 3244ft 0kts
30-Jul-20 08:15 33.659348 -101.832678 224 3244ft 0kts
30-Jul-20 08:16 33.659348 -101.832678 224 3244ft 0kts
30-Jul-20 08:17 33.659348 -101.832678 224 3244ft 0kts
30-Jul-20 08:18 33.659348 -101.832678 224 3244ft 0kts
30-Jul-20 08:19 33.659348 -101.832678 224 3244ft 0kts
30-Jul-20 08:20 33.659348 -101.832678 224 3244ft 0kts
30-Jul-20 08:21 33.659348 -101.832678 224 3244ft 0kts
30-Jul-20 08:22 33.659348 -101.832678 224 3244ft 0kts
30-Jul-20 08:23 33.659348 -101.832678 224 3244ft 0kts

Navigation Log

Ident Type
Flight plan parsing failed, navigation log unavailable